Time;durP1;ratioP1;P1;durP2;ratioP2;P2;SDS_P1;SDS_P2;PMS_P1;PMS_P2;Temp;Humidity;BMP_temperature;BMP_pressure;BME280_temperature;BME280_humidity;BME280_pressure;Samples;Min_cycle;Max_cycle;Signal;HPM_P1;HPM_P2
2022/01/31 00:01:00;;;;;;;9.63;3.50;;;4.70;99.90;;;;;;5034626;28;20670;-58
2022/01/31 00:03:30;;;;;;;12.07;3.63;;;4.70;99.90;;;;;;5034428;28;20234;-59
2022/01/31 00:05:56;;;;;;;12.30;4.37;;;4.70;99.90;;;;;;5034477;28;20260;-59
2022/01/31 00:08:24;;;;;;;10.90;3.70;;;4.80;99.90;;;;;;5034482;28;20237;-59
2022/01/31 00:10:52;;;;;;;15.30;4.13;;;4.80;99.90;;;;;;5034626;28;20206;-59
2022/01/31 00:13:22;;;;;;;14.17;4.13;;;4.80;99.90;;;;;;5034550;28;20237;-59
2022/01/31 00:15:54;;;;;;;8.50;3.43;;;4.70;99.90;;;;;;5034423;28;20245;-63
2022/01/31 00:18:22;;;;;;;11.93;3.93;;;4.40;99.90;;;;;;5034703;28;20210;-59
2022/01/31 00:20:49;;;;;;;11.63;3.60;;;4.40;99.90;;;;;;5034637;28;20713;-59
2022/01/31 00:23:15;;;;;;;12.70;4.27;;;4.40;99.90;;;;;;5034673;28;20222;-59
2022/01/31 00:25:42;;;;;;;13.83;4.03;;;4.30;99.90;;;;;;5034292;28;20256;-59
2022/01/31 00:28:09;;;;;;;11.50;4.20;;;4.30;99.90;;;;;;5034094;28;20206;-59
2022/01/31 00:30:35;;;;;;;10.20;4.13;;;4.50;99.90;;;;;;5034498;28;20214;-59
2022/01/31 00:33:02;;;;;;;11.40;3.83;;;4.60;99.90;;;;;;5034388;28;20226;-59
2022/01/31 00:35:30;;;;;;;13.20;4.17;;;4.70;99.90;;;;;;5034433;28;20206;-59
2022/01/31 00:37:57;;;;;;;11.43;4.77;;;4.70;99.90;;;;;;5034152;28;20240;-59
2022/01/31 00:40:24;;;;;;;8.37;3.93;;;4.80;99.90;;;;;;5034322;28;20601;-60
2022/01/31 00:42:50;;;;;;;10.07;3.50;;;4.90;99.90;;;;;;5033994;28;20235;-58
2022/01/31 00:45:23;;;;;;;10.90;3.87;;;5.00;99.90;;;;;;5033979;28;20210;-59
2022/01/31 00:48:00;;;;;;;11.23;3.67;;;5.00;99.90;;;;;;5034121;28;20739;-59
2022/01/31 00:50:27;;;;;;;12.13;3.87;;;5.10;99.90;;;;;;5034202;28;20210;-58
2022/01/31 00:52:56;;;;;;;10.27;3.77;;;5.10;99.90;;;;;;5033724;28;20682;-59
2022/01/31 00:55:23;;;;;;;11.40;4.37;;;5.20;99.90;;;;;;5033842;28;20232;-58
2022/01/31 00:57:49;;;;;;;14.37;4.40;;;5.30;99.90;;;;;;5033786;28;20210;-59
2022/01/31 01:00:17;;;;;;;11.67;4.47;;;5.40;99.90;;;;;;5034022;28;20632;-60
2022/01/31 01:02:44;;;;;;;10.80;3.80;;;5.40;99.90;;;;;;5033748;28;20233;-59
2022/01/31 01:05:11;;;;;;;11.63;3.90;;;5.30;99.90;;;;;;5033979;28;20219;-57
2022/01/31 01:07:38;;;;;;;12.10;3.87;;;5.10;99.90;;;;;;5033452;28;20261;-58
2022/01/31 01:10:07;;;;;;;10.37;4.03;;;5.00;99.90;;;;;;5033615;28;20225;-58
2022/01/31 01:12:33;;;;;;;8.77;3.63;;;5.20;99.90;;;;;;5033621;28;20238;-58
2022/01/31 01:15:01;;;;;;;10.77;3.83;;;5.30;99.90;;;;;;5033638;28;20227;-58
2022/01/31 01:17:28;;;;;;;9.47;3.77;;;5.50;99.90;;;;;;5033448;28;20217;-58
2022/01/31 01:19:54;;;;;;;11.47;3.63;;;5.60;99.90;;;;;;5033422;28;20272;-59
2022/01/31 01:22:21;;;;;;;10.00;3.93;;;5.80;99.90;;;;;;5033260;28;20231;-58
2022/01/31 01:24:49;;;;;;;12.60;3.63;;;5.90;99.90;;;;;;5033777;28;20198;-57
2022/01/31 01:27:19;;;;;;;10.63;4.13;;;6.00;99.90;;;;;;5033016;28;20666;-57
2022/01/31 01:29:46;;;;;;;11.87;4.10;;;5.90;99.90;;;;;;5033374;28;20210;-59
2022/01/31 01:32:13;;;;;;;12.00;3.77;;;5.90;99.90;;;;;;5033427;28;20230;-60
2022/01/31 01:34:40;;;;;;;16.33;4.30;;;5.90;99.90;;;;;;5033123;28;20717;-58
2022/01/31 01:37:07;;;;;;;10.13;3.80;;;5.90;99.90;;;;;;5033458;28;20246;-58
2022/01/31 01:39:34;;;;;;;11.00;4.00;;;6.00;99.90;;;;;;5033869;28;20206;-57
2022/01/31 01:42:00;;;;;;;9.83;3.60;;;6.00;99.90;;;;;;5033396;28;20222;-57
2022/01/31 01:44:42;;;;;;;11.27;3.20;;;5.80;99.90;;;;;;5033007;28;20202;-58
2022/01/31 01:47:10;;;;;;;9.40;3.27;;;5.50;99.90;;;;;;5033215;28;20307;-58
2022/01/31 01:49:37;;;;;;;11.37;3.33;;;5.50;99.90;;;;;;5033009;28;20210;-58
2022/01/31 01:52:04;;;;;;;11.90;3.43;;;5.60;99.90;;;;;;5033378;28;20230;-58
2022/01/31 01:54:31;;;;;;;11.90;3.70;;;5.70;99.90;;;;;;5033005;28;20226;-59
2022/01/31 01:56:59;;;;;;;11.80;3.70;;;5.80;99.90;;;;;;5032022;28;20206;-59
2022/01/31 01:59:26;;;;;;;10.30;3.20;;;5.80;99.90;;;;;;5032630;28;20694;-58
2022/01/31 02:01:54;;;;;;;13.47;3.77;;;5.70;99.90;;;;;;5032562;28;20237;-58
2022/01/31 02:04:20;;;;;;;8.00;3.20;;;5.80;99.90;;;;;;5032812;28;20206;-58
2022/01/31 02:06:47;;;;;;;10.90;3.73;;;5.90;99.90;;;;;;5032564;28;20233;-58
2022/01/31 02:09:14;;;;;;;10.00;3.13;;;6.00;99.90;;;;;;5032728;28;20218;-58
2022/01/31 02:11:40;;;;;;;11.57;3.77;;;6.00;99.90;;;;;;5032412;28;20210;-58
2022/01/31 02:14:07;;;;;;;8.87;3.47;;;6.00;99.90;;;;;;5032504;28;20284;-58
2022/01/31 02:16:34;;;;;;;12.57;3.50;;;5.90;99.90;;;;;;5032253;28;20214;-58
2022/01/31 02:19:02;;;;;;;10.37;3.80;;;5.90;99.90;;;;;;5032623;28;20301;-57
2022/01/31 02:21:30;;;;;;;12.17;3.83;;;6.00;99.90;;;;;;5032607;28;20213;-59
2022/01/31 02:23:57;;;;;;;11.87;3.80;;;5.90;99.90;;;;;;5032248;28;20202;-57
2022/01/31 02:26:24;;;;;;;9.63;3.50;;;5.90;99.90;;;;;;5032224;28;20267;-57
2022/01/31 02:28:51;;;;;;;7.77;3.80;;;5.90;99.90;;;;;;5032336;28;20206;-56
2022/01/31 02:31:17;;;;;;;13.13;3.83;;;5.90;99.90;;;;;;5032174;28;20210;-57
2022/01/31 02:33:44;;;;;;;10.90;3.23;;;5.90;99.90;;;;;;5032304;28;20237;-57
2022/01/31 02:36:11;;;;;;;13.33;3.90;;;5.80;99.90;;;;;;5032328;28;20600;-58
2022/01/31 02:38:39;;;;;;;10.90;3.47;;;5.90;99.90;;;;;;5031971;28;20217;-58
2022/01/31 02:41:05;;;;;;;11.73;3.40;;;5.90;99.90;;;;;;5032125;28;20217;-58
2022/01/31 02:43:34;;;;;;;10.63;3.60;;;6.00;99.90;;;;;;5031841;28;20582;-59
2022/01/31 02:46:02;;;;;;;12.20;3.73;;;6.10;99.90;;;;;;5032076;28;20212;-57
2022/01/31 02:48:33;;;;;;;13.93;3.80;;;6.10;99.90;;;;;;5031981;28;20209;-59
2022/01/31 02:51:00;;;;;;;10.63;3.63;;;6.20;99.90;;;;;;5031981;28;20294;-58
2022/01/31 02:53:29;;;;;;;13.20;3.53;;;6.10;99.90;;;;;;5031906;28;20257;-59
2022/01/31 02:55:59;;;;;;;10.37;4.10;;;5.90;99.90;;;;;;5031981;28;20221;-59
2022/01/31 02:58:28;;;;;;;10.07;3.53;;;5.70;99.90;;;;;;5031722;28;20214;-58
2022/01/31 03:00:57;;;;;;;10.93;3.60;;;5.60;99.90;;;;;;5032023;28;20213;-59
2022/01/31 03:03:24;;;;;;;12.07;3.97;;;5.50;99.90;;;;;;5031724;28;20714;-58
2022/01/31 03:05:51;;;;;;;10.63;3.77;;;5.40;99.90;;;;;;5031997;28;20260;-59
2022/01/31 03:08:18;;;;;;;8.93;3.37;;;5.50;99.90;;;;;;5033809;28;20210;-59
2022/01/31 03:10:45;;;;;;;7.97;3.47;;;5.50;99.90;;;;;;5036040;28;20216;-58
2022/01/31 03:13:13;;;;;;;9.53;3.60;;;5.50;99.90;;;;;;5035810;28;20311;-59
2022/01/31 03:15:40;;;;;;;12.10;3.87;;;5.40;99.90;;;;;;5035869;28;20226;-59
2022/01/31 03:18:07;;;;;;;8.83;3.60;;;5.40;99.90;;;;;;5035850;28;20210;-59
2022/01/31 03:20:34;;;;;;;8.37;3.17;;;5.40;99.90;;;;;;5035977;28;20216;-59
2022/01/31 03:23:01;;;;;;;10.30;3.83;;;5.50;99.90;;;;;;5035640;28;20233;-59
2022/01/31 03:25:29;;;;;;;11.70;3.90;;;5.50;99.90;;;;;;5035748;28;20322;-60
2022/01/31 03:27:56;;;;;;;8.47;3.40;;;5.50;99.90;;;;;;5035503;28;20210;-59
2022/01/31 03:30:25;;;;;;;15.17;3.87;;;5.40;99.90;;;;;;5035688;28;20649;-59
2022/01/31 03:32:52;;;;;;;7.97;3.47;;;5.40;99.90;;;;;;5035536;28;20230;-59
2022/01/31 03:35:19;;;;;;;7.93;3.40;;;5.30;99.90;;;;;;5035440;28;20222;-59
2022/01/31 03:37:46;;;;;;;10.60;3.97;;;5.30;99.90;;;;;;5035146;28;20283;-59
2022/01/31 03:40:13;;;;;;;11.33;4.07;;;5.30;99.90;;;;;;5035409;28;20697;-58
2022/01/31 03:42:41;;;;;;;14.53;4.00;;;5.30;99.90;;;;;;5035197;28;20643;-59
2022/01/31 03:45:10;;;;;;;11.40;3.53;;;5.30;99.90;;;;;;5035289;28;20671;-59
2022/01/31 03:47:44;;;;;;;7.73;3.80;;;5.20;99.90;;;;;;5035295;28;20305;-58
2022/01/31 03:50:12;;;;;;;15.17;4.07;;;5.30;99.90;;;;;;5035156;28;20284;-59
2022/01/31 03:52:38;;;;;;;9.47;3.33;;;5.50;99.90;;;;;;5035549;28;20230;-59
2022/01/31 03:55:06;;;;;;;12.57;4.17;;;5.60;99.90;;;;;;5035172;28;20233;-58
2022/01/31 03:57:33;;;;;;;9.37;3.57;;;5.70;99.90;;;;;;5035134;28;20202;-58
2022/01/31 04:00:01;;;;;;;11.27;3.67;;;5.90;99.90;;;;;;5035328;28;20228;-59
2022/01/31 04:02:28;;;;;;;12.13;3.80;;;5.90;99.90;;;;;;5035151;28;20778;-59
2022/01/31 04:04:56;;;;;;;9.17;3.80;;;5.90;99.90;;;;;;5034889;28;20206;-59
2022/01/31 04:07:22;;;;;;;8.73;3.37;;;5.90;99.90;;;;;;5034626;28;20260;-59
2022/01/31 04:09:49;;;;;;;12.33;3.73;;;5.90;99.90;;;;;;5034930;28;20215;-58
2022/01/31 04:12:16;;;;;;;12.87;3.63;;;6.00;99.90;;;;;;5034725;28;20237;-59
2022/01/31 04:14:43;;;;;;;9.93;3.60;;;6.00;99.90;;;;;;5034775;28;20237;-59
2022/01/31 04:17:10;;;;;;;10.27;3.83;;;6.10;99.90;;;;;;5034567;28;20289;-59
2022/01/31 04:19:38;;;;;;;8.40;3.03;;;6.10;99.90;;;;;;5033801;28;20256;-59
2022/01/31 04:22:10;;;;;;;9.33;3.47;;;6.00;99.90;;;;;;5034686;28;20228;-59
2022/01/31 04:24:40;;;;;;;13.57;3.90;;;6.00;99.90;;;;;;5035832;28;20214;-59
2022/01/31 04:27:07;;;;;;;8.90;4.03;;;6.10;99.90;;;;;;5034497;28;20216;-59
2022/01/31 04:29:36;;;;;;;7.37;3.17;;;6.10;99.90;;;;;;5034641;28;20220;-58
2022/01/31 04:32:04;;;;;;;12.60;4.47;;;6.20;99.90;;;;;;5034216;28;20317;-59
2022/01/31 04:34:31;;;;;;;9.97;3.70;;;6.00;99.90;;;;;;5034507;28;20226;-59
2022/01/31 04:36:58;;;;;;;6.50;3.40;;;6.00;99.90;;;;;;5034226;28;20252;-59
2022/01/31 04:39:28;;;;;;;11.43;3.80;;;5.90;99.90;;;;;;5034417;28;20206;-59
2022/01/31 04:41:55;;;;;;;13.47;3.77;;;5.80;99.90;;;;;;5034235;28;20613;-59
2022/01/31 04:44:22;;;;;;;11.77;3.60;;;5.80;99.90;;;;;;5034017;28;20248;-59
2022/01/31 04:46:51;;;;;;;9.87;3.97;;;5.70;99.90;;;;;;5033662;28;20960;-58
2022/01/31 04:49:19;;;;;;;9.53;3.77;;;5.70;99.90;;;;;;5034245;28;20206;-59
2022/01/31 04:51:46;;;;;;;9.03;3.73;;;5.70;99.90;;;;;;5034059;28;20590;-59
2022/01/31 04:54:12;;;;;;;9.37;3.60;;;5.60;99.90;;;;;;5034047;28;20218;-59
2022/01/31 04:56:42;;;;;;;8.00;3.37;;;5.70;99.90;;;;;;5033770;28;20210;-59
2022/01/31 04:59:09;;;;;;;15.10;3.70;;;5.60;99.90;;;;;;5033886;28;20208;-59
2022/01/31 05:01:38;;;;;;;9.27;3.63;;;5.70;99.90;;;;;;5033972;28;20630;-59
2022/01/31 05:04:05;;;;;;;10.83;3.67;;;5.60;99.90;;;;;;5034150;28;20212;-59
2022/01/31 05:06:35;;;;;;;11.00;4.80;;;5.60;99.90;;;;;;5033630;28;20249;-57
2022/01/31 05:09:03;;;;;;;12.13;4.60;;;5.70;99.90;;;;;;5033901;28;20210;-59
2022/01/31 05:11:29;;;;;;;9.00;3.63;;;5.70;99.90;;;;;;5033456;28;20202;-58
2022/01/31 05:13:57;;;;;;;10.53;4.10;;;5.70;99.90;;;;;;5056985;22;20222;-60
2022/01/31 05:16:24;;;;;;;11.83;3.80;;;5.70;99.90;;;;;;5027895;28;20313;-60
2022/01/31 05:18:51;;;;;;;11.50;3.77;;;5.70;99.90;;;;;;5033857;28;20214;-60
2022/01/31 05:21:17;;;;;;;10.37;3.97;;;5.60;99.90;;;;;;5033854;28;20206;-60
2022/01/31 05:23:47;;;;;;;10.40;3.80;;;5.60;99.90;;;;;;5033604;28;20264;-60
2022/01/31 05:26:14;;;;;;;9.47;3.70;;;5.60;99.90;;;;;;5033404;28;20206;-60
2022/01/31 05:28:40;;;;;;;12.37;3.87;;;5.60;99.90;;;;;;5033807;28;20214;-60
2022/01/31 05:31:08;;;;;;;8.13;3.60;;;5.60;99.90;;;;;;5042649;28;20210;-60
2022/01/31 05:33:35;;;;;;;10.13;3.90;;;5.60;99.90;;;;;;5045457;28;20230;-60
2022/01/31 05:36:02;;;;;;;7.57;3.63;;;5.70;99.90;;;;;;5036196;28;20257;-60
2022/01/31 05:38:30;;;;;;;9.60;4.20;;;5.80;99.90;;;;;;5033221;28;20674;-60
2022/01/31 05:41:00;;;;;;;11.03;3.70;;;5.90;99.90;;;;;;5033019;28;20210;-60
2022/01/31 05:43:28;;;;;;;11.33;4.00;;;5.90;99.90;;;;;;5033183;28;20317;-60
2022/01/31 05:45:54;;;;;;;11.43;5.10;;;5.90;99.90;;;;;;5033059;28;20664;-60
2022/01/31 05:48:22;;;;;;;7.37;3.40;;;5.90;99.90;;;;;;5032992;28;20217;-60
2022/01/31 05:50:49;;;;;;;7.40;3.27;;;6.00;99.90;;;;;;5033054;28;20210;-60
2022/01/31 05:53:16;;;;;;;9.90;3.87;;;6.00;99.90;;;;;;5032768;28;20741;-60
2022/01/31 05:55:42;;;;;;;10.40;3.67;;;6.10;99.90;;;;;;5033067;28;20230;-60
2022/01/31 05:58:09;;;;;;;10.23;4.87;;;6.20;99.90;;;;;;5032719;28;20635;-60
2022/01/31 06:00:37;;;;;;;8.77;3.80;;;6.20;99.90;;;;;;5032949;28;20297;-60
2022/01/31 06:03:04;;;;;;;10.43;3.73;;;6.20;99.90;;;;;;5032809;28;20222;-59
2022/01/31 06:05:32;;;;;;;8.70;3.53;;;6.30;99.90;;;;;;5032761;28;20682;-60
2022/01/31 06:07:59;;;;;;;9.50;3.40;;;6.30;99.90;;;;;;5032395;28;20214;-60
2022/01/31 06:10:26;;;;;;;7.93;3.33;;;6.40;99.90;;;;;;5032599;28;20202;-59
2022/01/31 06:12:54;;;;;;;8.83;4.20;;;6.40;99.90;;;;;;5032550;28;20329;-60
2022/01/31 06:15:21;;;;;;;9.57;3.53;;;6.50;99.90;;;;;;5032306;28;20234;-60
2022/01/31 06:17:48;;;;;;;7.43;3.50;;;6.60;99.90;;;;;;5032102;28;20207;-59
2022/01/31 06:20:14;;;;;;;10.53;3.43;;;6.70;99.90;;;;;;5032243;28;20657;-59
2022/01/31 06:22:51;;;;;;;11.87;3.20;;;6.80;99.90;;;;;;5032318;28;20638;-60
2022/01/31 06:25:18;;;;;;;9.83;3.40;;;6.90;99.90;;;;;;5032204;28;20206;-60
2022/01/31 06:27:45;;;;;;;9.57;3.43;;;6.90;99.90;;;;;;5032083;28;20206;-60
2022/01/31 06:30:12;;;;;;;9.67;3.00;;;6.90;99.90;;;;;;5032170;28;20557;-61
2022/01/31 06:32:39;;;;;;;6.17;2.70;;;6.90;99.90;;;;;;5032132;28;20656;-60
2022/01/31 06:35:08;;;;;;;8.47;2.70;;;6.90;99.90;;;;;;5031912;28;20229;-60
2022/01/31 06:37:35;;;;;;;8.40;3.30;;;6.90;99.90;;;;;;5031903;28;20564;-60
2022/01/31 06:40:04;;;;;;;9.17;3.10;;;6.90;99.90;;;;;;5032090;28;20206;-61
2022/01/31 06:42:31;;;;;;;8.47;3.10;;;6.90;99.90;;;;;;5031669;28;20239;-61
2022/01/31 06:44:58;;;;;;;10.37;3.23;;;7.00;99.90;;;;;;5031862;28;20206;-61
2022/01/31 06:47:25;;;;;;;8.53;3.23;;;7.00;99.90;;;;;;5031512;28;20209;-60
2022/01/31 06:49:52;;;;;;;8.83;3.00;;;6.90;99.90;;;;;;5032142;28;20233;-60
2022/01/31 06:52:19;;;;;;;11.43;3.20;;;7.00;99.90;;;;;;5031991;28;20253;-60
2022/01/31 06:54:50;;;;;;;9.83;3.10;;;6.90;99.90;;;;;;5031934;28;20214;-60
2022/01/31 06:57:22;;;;;;;9.27;3.30;;;6.90;99.90;;;;;;5031889;28;20217;-61
2022/01/31 06:59:49;;;;;;;11.07;4.00;;;6.90;99.90;;;;;;5032097;28;20210;-60
2022/01/31 07:02:15;;;;;;;8.27;3.27;;;6.90;99.90;;;;;;5031918;28;20264;-61
2022/01/31 07:04:42;;;;;;;11.97;2.90;;;6.70;99.90;;;;;;5031998;28;20206;-60
2022/01/31 07:07:09;;;;;;;9.83;3.00;;;6.60;99.90;;;;;;5031742;28;20255;-61
2022/01/31 07:09:35;;;;;;;11.73;3.10;;;6.50;99.90;;;;;;5031922;28;20865;-61
2022/01/31 07:12:05;;;;;;;9.27;3.10;;;6.50;99.90;;;;;;5031649;28;20206;-61
2022/01/31 07:14:33;;;;;;;14.00;2.90;;;6.50;99.90;;;;;;5031803;28;20210;-60
2022/01/31 07:17:01;;;;;;;8.37;2.90;;;6.50;99.90;;;;;;5031540;28;20230;-60
2022/01/31 07:19:29;;;;;;;10.63;3.10;;;6.60;99.90;;;;;;5031728;28;20698;-61
2022/01/31 07:21:56;;;;;;;11.50;3.30;;;6.60;99.90;;;;;;5031821;28;20305;-60
2022/01/31 07:24:25;;;;;;;9.83;3.80;;;6.60;99.90;;;;;;5031859;28;20257;-62
2022/01/31 07:26:53;;;;;;;13.67;6.27;;;6.70;99.90;;;;;;5031662;28;20210;-60
2022/01/31 07:29:21;;;;;;;13.37;4.13;;;6.70;99.90;;;;;;5031548;28;21239;-61
2022/01/31 07:31:50;;;;;;;7.17;2.97;;;6.70;99.90;;;;;;5031896;28;20213;-61
2022/01/31 07:34:18;;;;;;;6.97;3.40;;;6.80;99.90;;;;;;5031711;28;20233;-60
2022/01/31 07:36:46;;;;;;;8.80;3.03;;;6.80;99.90;;;;;;5031613;28;20296;-61
2022/01/31 07:39:12;;;;;;;9.63;3.17;;;6.70;99.90;;;;;;5031396;28;20230;-60
2022/01/31 07:41:39;;;;;;;11.47;3.60;;;6.70;99.90;;;;;;5031706;28;20214;-60
2022/01/31 07:44:06;;;;;;;8.93;2.97;;;6.80;99.90;;;;;;5031580;28;20230;-60
2022/01/31 07:46:33;;;;;;;9.67;3.03;;;6.80;99.90;;;;;;5031640;28;20202;-60
2022/01/31 07:49:02;;;;;;;10.40;3.40;;;6.80;99.90;;;;;;5031123;28;20275;-60
2022/01/31 07:51:29;;;;;;;7.77;2.87;;;6.80;99.90;;;;;;5031420;28;20778;-60
2022/01/31 07:53:55;;;;;;;10.87;3.10;;;6.80;99.90;;;;;;5031235;28;20740;-60
2022/01/31 07:56:22;;;;;;;7.87;3.00;;;6.80;99.90;;;;;;5035076;28;20729;-60
2022/01/31 07:58:49;;;;;;;10.47;4.50;;;6.80;99.90;;;;;;5035016;28;20213;-63
2022/01/31 08:01:16;;;;;;;7.87;3.20;;;6.90;99.90;;;;;;5035017;28;20203;-59
2022/01/31 08:03:43;;;;;;;7.30;2.87;;;7.00;99.90;;;;;;5035017;28;20234;-59
2022/01/31 08:06:12;;;;;;;8.03;2.83;;;7.00;99.90;;;;;;5034952;28;20222;-60
2022/01/31 08:08:38;;;;;;;13.57;3.30;;;7.00;99.90;;;;;;5034465;28;20210;-61
2022/01/31 08:11:06;;;;;;;8.97;2.77;;;7.10;99.90;;;;;;5034907;28;20250;-60
2022/01/31 08:13:33;;;;;;;9.20;3.13;;;7.10;99.90;;;;;;5034394;28;20606;-61
2022/01/31 08:16:03;;;;;;;6.97;2.20;;;7.10;99.90;;;;;;5034695;28;20253;-61
2022/01/31 08:18:30;;;;;;;5.60;2.33;;;7.20;99.90;;;;;;5034479;28;20210;-60
2022/01/31 08:20:56;;;;;;;2.90;1.73;;;7.20;99.90;;;;;;5034675;28;20280;-59
2022/01/31 08:23:24;;;;;;;3.83;1.80;;;7.20;99.90;;;;;;5034161;28;20307;-59
2022/01/31 08:25:52;;;;;;;4.27;1.90;;;7.30;99.90;;;;;;5034733;28;20202;-60
2022/01/31 08:28:26;;;;;;;5.60;1.80;;;7.20;99.90;;;;;;5034157;28;20674;-60
2022/01/31 08:30:58;;;;;;;3.80;1.60;;;7.30;99.90;;;;;;5034287;28;20620;-60
2022/01/31 08:33:35;;;;;;;2.90;1.40;;;7.30;99.90;;;;;;5034127;28;20623;-60
2022/01/31 08:36:03;;;;;;;3.20;1.30;;;7.20;99.90;;;;;;5034178;28;20218;-60
2022/01/31 08:38:31;;;;;;;1.87;1.10;;;7.20;99.90;;;;;;5034102;28;20260;-60
2022/01/31 08:40:59;;;;;;;2.50;0.77;;;7.20;99.90;;;;;;5034172;28;20202;-60
2022/01/31 08:43:26;;;;;;;1.27;0.90;;;7.20;99.90;;;;;;5034131;28;20226;-60
2022/01/31 08:45:55;;;;;;;1.80;0.80;;;7.20;99.90;;;;;;5034158;28;20629;-60
2022/01/31 08:48:22;;;;;;;2.07;0.70;;;7.10;99.90;;;;;;5034230;28;20208;-60
2022/01/31 08:50:49;;;;;;;1.93;0.77;;;7.00;99.90;;;;;;5034316;28;20624;-61
2022/01/31 08:53:15;;;;;;;0.50;0.50;;;7.00;99.90;;;;;;5035173;28;20649;-61
2022/01/31 08:55:50;;;;;;;0.93;0.80;;;6.90;99.90;;;;;;5034581;28;20222;-61
2022/01/31 08:58:16;;;;;;;1.23;0.70;;;6.80;99.90;;;;;;5033899;28;20623;-61
2022/01/31 09:00:44;;;;;;;5.13;3.33;;;6.80;99.90;;;;;;5033929;28;20206;-61
2022/01/31 09:03:23;;;;;;;2.77;1.00;;;6.90;99.90;;;;;;5034001;28;20230;-60
2022/01/31 09:05:50;;;;;;;2.03;0.70;;;7.10;99.90;;;;;;5033713;28;20206;-59
2022/01/31 09:08:17;;;;;;;1.77;0.90;;;7.20;99.90;;;;;;5033479;28;20210;-60
2022/01/31 09:10:45;;;;;;;2.30;1.30;;;7.30;99.90;;;;;;5033734;28;20577;-61
2022/01/31 09:13:14;;;;;;;4.63;1.30;;;7.40;99.90;;;;;;5033271;28;20238;-60
2022/01/31 09:15:41;;;;;;;2.93;1.20;;;7.50;99.90;;;;;;5033224;28;21186;-61
2022/01/31 09:18:09;;;;;;;2.93;1.17;;;7.80;99.90;;;;;;5033418;28;20210;-61
2022/01/31 09:20:35;;;;;;;2.43;1.43;;;8.20;99.90;;;;;;5033488;28;20202;-61
2022/01/31 09:23:02;;;;;;;1.17;0.90;;;8.50;99.90;;;;;;5033747;28;20237;-61
2022/01/31 09:25:30;;;;;;;2.67;1.43;;;8.70;99.90;;;;;;5033356;28;20215;-61
2022/01/31 09:27:58;;;;;;;3.90;1.50;;;8.90;99.90;;;;;;5032800;28;20637;-60
2022/01/31 09:30:26;;;;;;;2.37;1.30;;;9.10;99.90;;;;;;5033137;28;20542;-61
2022/01/31 09:32:54;;;;;;;1.80;1.13;;;9.10;99.90;;;;;;5033309;28;20226;-61
2022/01/31 09:35:21;;;;;;;2.70;1.27;;;9.00;99.90;;;;;;5033261;28;20292;-61
2022/01/31 09:37:48;;;;;;;1.93;1.17;;;8.90;99.90;;;;;;5032974;28;20210;-61
2022/01/31 09:40:19;;;;;;;3.80;1.00;;;8.80;99.90;;;;;;5033257;28;20260;-60
2022/01/31 09:43:07;;;;;;;2.13;0.93;;;8.60;99.90;;;;;;5033201;28;20253;-60
2022/01/31 09:45:50;;;;;;;3.40;1.10;;;8.50;99.90;;;;;;5033000;28;20237;-60
2022/01/31 09:48:32;;;;;;;5.57;3.17;;;8.60;99.90;;;;;;5032680;28;20203;-59
2022/01/31 09:51:00;;;;;;;2.13;0.80;;;8.80;99.90;;;;;;5033143;28;20210;-61
2022/01/31 09:53:28;;;;;;;1.50;0.80;;;8.90;99.90;;;;;;5032911;28;20322;-59
2022/01/31 09:55:55;;;;;;;2.90;1.10;;;9.10;99.90;;;;;;5032749;28;20222;-59
2022/01/31 09:58:24;;;;;;;2.03;1.20;;;9.10;99.90;;;;;;5032540;28;20206;-61
2022/01/31 10:01:03;;;;;;;2.53;1.07;;;9.00;99.90;;;;;;5032568;28;20210;-61
2022/01/31 10:03:30;;;;;;;1.10;0.90;;;8.90;99.90;;;;;;5032835;28;20642;-61
2022/01/31 10:05:56;;;;;;;2.35;1.30;;;8.70;99.90;;;;;;5032241;28;20433;-68
2022/01/31 10:08:29;;;;;;;3.80;1.40;;;8.50;99.90;;;;;;5032253;28;20559;-66
2022/01/31 10:11:01;;;;;;;2.93;1.20;;;8.40;99.90;;;;;;5032644;28;20297;-63
2022/01/31 10:16:27;;;;;;;2.90;1.37;;;8.00;99.90;;;;;;5032527;28;20715;-62
2022/01/31 10:19:01;;;;;;;4.70;1.30;;;7.80;99.90;;;;;;5031655;28;20210;-62
2022/01/31 10:21:28;;;;;;;2.83;1.30;;;7.80;99.90;;;;;;5032077;28;20205;-62
2022/01/31 10:23:55;;;;;;;2.10;1.30;;;7.80;99.90;;;;;;5032148;28;20763;-62
2022/01/31 10:26:30;;;;;;;4.40;1.40;;;7.80;99.90;;;;;;5032273;28;20257;-62
2022/01/31 10:29:14;;;;;;;2.87;1.57;;;7.90;99.90;;;;;;5032270;28;20213;-62
2022/01/31 10:31:57;;;;;;;1.70;1.27;;;8.10;99.90;;;;;;5030496;28;20244;-61
2022/01/31 10:34:25;;;;;;;1.93;1.37;;;8.10;99.90;;;;;;5033102;28;20253;-60
2022/01/31 10:36:52;;;;;;;3.40;1.50;;;8.20;99.90;;;;;;5033182;28;20240;-62
2022/01/31 10:53:55;;;;;;;2.77;1.27;;;8.10;99.90;;;;;;5031854;28;20233;-62
2022/01/31 10:56:22;;;;;;;5.00;1.57;;;8.00;99.90;;;;;;5031920;28;20222;-61
2022/01/31 10:58:57;;;;;;;6.43;2.83;;;8.10;99.90;;;;;;5031737;28;20256;-62
2022/01/31 11:01:27;;;;;;;4.63;1.63;;;8.10;99.90;;;;;;5031802;28;20206;-61
2022/01/31 11:03:54;;;;;;;2.70;1.27;;;8.20;99.90;;;;;;5031402;28;20226;-61
2022/01/31 11:06:23;;;;;;;3.43;1.47;;;8.30;99.90;;;;;;5032090;28;20206;-62
2022/01/31 11:08:51;;;;;;;4.93;1.50;;;8.30;99.90;;;;;;5031724;28;20202;-61
2022/01/31 11:11:18;;;;;;;4.90;2.47;;;8.40;99.90;;;;;;5031904;28;20263;-61
2022/01/31 11:13:48;;;;;;;5.63;1.30;;;8.40;99.90;;;;;;5064484;22;20276;-58
2022/01/31 11:16:15;;;;;;;3.47;1.33;;;8.50;99.90;;;;;;5044257;28;20700;-57
2022/01/31 11:18:44;;;;;;;2.27;1.30;;;8.50;99.90;;;;;;5051613;28;20206;-56
2022/01/31 11:21:12;;;;;;;4.83;1.50;;;8.50;99.90;;;;;;5052129;28;20248;-56
2022/01/31 11:23:43;;;;;;;5.10;1.43;;;8.60;99.90;;;;;;5051797;28;20225;-57
2022/01/31 11:26:12;;;;;;;3.37;1.30;;;8.60;99.90;;;;;;5051878;28;20210;-56
2022/01/31 11:28:41;;;;;;;4.43;1.37;;;8.50;99.90;;;;;;5052706;28;20695;-57
2022/01/31 11:31:08;;;;;;;3.87;1.43;;;8.60;99.90;;;;;;5055947;28;20212;-57
2022/01/31 11:33:36;;;;;;;5.03;1.53;;;8.70;99.90;;;;;;5055721;28;20637;-57
2022/01/31 11:36:04;;;;;;;3.10;1.30;;;8.60;99.90;;;;;;5055953;28;20198;-57
2022/01/31 11:38:33;;;;;;;4.37;1.40;;;8.70;99.90;;;;;;5055665;28;20206;-57
2022/01/31 11:41:02;;;;;;;4.73;1.27;;;8.70;99.90;;;;;;5056184;28;20201;-57
2022/01/31 11:43:29;;;;;;;3.07;1.40;;;8.70;99.90;;;;;;5055556;28;20229;-58
2022/01/31 11:45:59;;;;;;;2.90;1.20;;;8.60;99.90;;;;;;5055753;28;20213;-58
2022/01/31 11:48:29;;;;;;;4.43;1.40;;;8.50;99.90;;;;;;5055500;28;20209;-56
2022/01/31 11:50:59;;;;;;;3.80;1.27;;;8.40;99.90;;;;;;5055669;28;20209;-57
2022/01/31 11:53:33;;;;;;;3.50;1.00;;;8.30;99.90;;;;;;5055340;28;20226;-57
2022/01/31 11:56:08;;;;;;;4.97;1.30;;;8.20;99.90;;;;;;5055203;28;20205;-57
2022/01/31 11:58:45;;;;;;;4.00;2.03;;;8.20;99.90;;;;;;5055103;28;20691;-60
2022/01/31 12:01:12;;;;;;;3.73;1.40;;;8.20;99.90;;;;;;5055294;28;20210;-62
2022/01/31 12:03:52;;;;;;;3.87;1.30;;;8.10;99.90;;;;;;5052864;28;20234;-58
2022/01/31 12:06:22;;;;;;;1.97;1.00;;;8.10;99.90;;;;;;5054643;28;20295;-57
2022/01/31 12:08:50;;;;;;;3.60;1.53;;;7.90;99.90;;;;;;5054994;28;20205;-58
2022/01/31 12:11:24;;;;;;;2.53;1.00;;;7.90;99.90;;;;;;5054869;28;20206;-58
2022/01/31 12:13:55;;;;;;;2.50;1.07;;;7.80;99.90;;;;;;5054304;28;20229;-58
2022/01/31 12:16:45;;;;;;;5.13;1.00;;;7.80;99.90;;;;;;5054533;28;20210;-59
2022/01/31 12:19:35;;;;;;;4.57;1.13;;;7.90;99.90;;;;;;5054628;28;20205;-59
2022/01/31 12:22:02;;;;;;;5.07;1.20;;;7.80;99.90;;;;;;5054621;28;20622;-58
2022/01/31 12:24:40;;;;;;;2.50;1.10;;;7.80;99.90;;;;;;5054450;28;20594;-58
2022/01/31 12:27:09;;;;;;;3.90;1.30;;;7.80;99.90;;;;;;5054535;28;20224;-57
2022/01/31 12:29:37;;;;;;;3.93;1.30;;;7.80;99.90;;;;;;5054724;28;20213;-57
2022/01/31 12:32:15;;;;;;;2.90;1.20;;;7.80;99.90;;;;;;5055159;28;20354;-58
2022/01/31 12:34:48;;;;;;;8.60;3.70;;;7.90;99.90;;;;;;5054242;28;20256;-60
2022/01/31 12:37:34;;;;;;;5.57;1.80;;;7.90;99.90;;;;;;5054193;28;20225;-59
2022/01/31 12:40:11;;;;;;;6.30;1.37;;;7.80;99.90;;;;;;5052105;28;20297;-58
2022/01/31 12:43:12;;;;;;;4.60;1.37;;;7.80;99.90;;;;;;5054732;28;20233;-58
2022/01/31 12:46:02;;;;;;;3.40;1.00;;;7.90;99.90;;;;;;5053940;28;20205;-59
2022/01/31 12:48:29;;;;;;;4.90;1.20;;;7.80;99.90;;;;;;5054356;28;20228;-58
2022/01/31 12:51:02;;;;;;;3.73;1.40;;;7.80;99.90;;;;;;5054664;28;20216;-60
2022/01/31 12:53:46;;;;;;;3.87;1.30;;;7.80;99.90;;;;;;5050665;28;20312;-59
2022/01/31 12:56:22;;;;;;;4.63;1.30;;;7.80;99.90;;;;;;5025964;28;20236;-58
2022/01/31 12:58:50;;;;;;;4.00;1.13;;;7.70;99.90;;;;;;5034023;28;20208;-58
2022/01/31 13:01:20;;;;;;;5.37;1.30;;;7.70;99.90;;;;;;5034441;28;20206;-61
2022/01/31 13:03:48;;;;;;;6.43;1.30;;;7.70;99.90;;;;;;5034059;28;20226;-58
2022/01/31 13:06:37;;;;;;;4.83;0.90;;;7.60;99.90;;;;;;5034817;28;20210;-59
2022/01/31 13:09:08;;;;;;;5.80;1.50;;;7.70;99.90;;;;;;5031090;28;20603;-59
2022/01/31 13:11:37;;;;;;;3.50;1.03;;;7.70;99.90;;;;;;5035069;28;20795;-57
2022/01/31 13:14:06;;;;;;;3.53;1.07;;;7.80;99.90;;;;;;5041549;28;20244;-58
2022/01/31 13:16:50;;;;;;;3.83;1.07;;;7.80;99.90;;;;;;5054214;28;20419;-58
2022/01/31 13:19:23;;;;;;;2.73;1.30;;;7.70;99.90;;;;;;5054340;28;20821;-57